Time;durP1;ratioP1;P1;durP2;ratioP2;P2;SDS_P1;SDS_P2;PMS_P1;PMS_P2;Temp;Humidity;BMP_temperature;BMP_pressure;BME280_temperature;BME280_humidity;BME280_pressure;Samples;Min_cycle;Max_cycle;Signal;HPM_P1;HPM_P2
2022/04/24 00:00:43;;;;;;;18.85;10.95;;;;;;;11.02;85.45;98592.00;1753207;80;21454;-67
2022/04/24 00:03:12;;;;;;;12.50;9.45;;;;;;;10.99;85.66;98599.59;1753810;80;20984;-69
2022/04/24 00:05:43;;;;;;;13.05;9.73;;;;;;;10.97;85.86;98586.72;1773900;80;20981;-64
2022/04/24 00:08:12;;;;;;;13.70;9.05;;;;;;;10.95;85.99;98588.45;1772697;80;21134;-70
2022/04/24 00:10:39;;;;;;;13.48;9.58;;;;;;;10.92;86.23;98582.25;1771929;80;20980;-63
2022/04/24 00:13:07;;;;;;;12.18;9.40;;;;;;;10.92;86.43;98580.88;1771664;80;21098;-69
2022/04/24 00:15:39;;;;;;;16.55;9.03;;;;;;;10.93;86.58;98580.30;1772136;80;21015;-69
2022/04/24 00:18:07;;;;;;;12.37;8.75;;;;;;;10.95;86.60;98575.26;1771693;80;20996;-71
2022/04/24 00:20:35;;;;;;;11.95;8.30;;;;;;;10.98;86.58;98575.13;1768891;80;20985;-68
2022/04/24 00:23:04;;;;;;;12.55;9.00;;;;;;;11.01;86.60;98580.75;1772350;80;21114;-68
2022/04/24 00:25:32;;;;;;;11.18;8.48;;;;;;;11.03;86.63;98581.78;1771779;80;20984;-62
2022/04/24 00:28:02;;;;;;;10.78;7.85;;;;;;;11.05;86.58;98583.03;1772313;80;20981;-62
2022/04/24 00:30:30;;;;;;;11.25;7.62;;;;;;;11.07;86.54;98574.44;1771764;80;20967;-65
2022/04/24 00:32:56;;;;;;;9.25;7.55;;;;;;;11.07;86.45;98571.09;1772319;80;21117;-65
2022/04/24 00:35:28;;;;;;;9.75;7.17;;;;;;;11.04;86.27;98568.22;1772509;80;21063;-67
2022/04/24 00:37:58;;;;;;;11.57;8.03;;;;;;;11.01;86.30;98567.54;1768853;80;21066;-70
2022/04/24 00:40:27;;;;;;;10.13;7.05;;;;;;;11.00;86.38;98562.63;1772455;80;21078;-69
2022/04/24 00:42:54;;;;;;;10.38;7.83;;;;;;;11.03;86.43;98570.19;1769050;80;20977;-68
2022/04/24 00:45:24;;;;;;;10.32;7.92;;;;;;;11.06;86.54;98578.33;1772547;80;20961;-70
2022/04/24 00:47:54;;;;;;;11.40;8.60;;;;;;;11.06;86.59;98584.66;1768415;80;21011;-65
2022/04/24 00:50:21;;;;;;;10.85;7.53;;;;;;;11.08;86.61;98579.61;1772316;80;21043;-66
2022/04/24 00:52:52;;;;;;;12.00;7.83;;;;;;;11.08;86.48;98585.13;1773442;80;21013;-67
2022/04/24 00:55:22;;;;;;;10.70;7.67;;;;;;;11.05;86.52;98584.41;1775615;79;21047;-69
2022/04/24 00:57:48;;;;;;;12.90;9.05;;;;;;;11.03;86.56;98595.56;1771883;80;21240;-69
2022/04/24 01:00:20;;;;;;;10.75;8.15;;;;;;;10.98;86.64;98592.48;1772415;80;21496;-64
2022/04/24 01:02:51;;;;;;;10.93;7.83;;;;;;;10.95;86.72;98582.94;1772453;80;21062;-67
2022/04/24 01:05:21;;;;;;;11.68;8.45;;;;;;;10.92;86.85;98576.73;1772279;80;21539;-70
2022/04/24 01:07:49;;;;;;;11.43;8.18;;;;;;;10.91;86.99;98581.22;1772586;80;21098;-66
2022/04/24 01:10:15;;;;;;;10.70;8.30;;;;;;;10.90;87.13;98577.66;1773226;80;22063;-71
2022/04/24 01:12:45;;;;;;;11.97;8.63;;;;;;;10.89;87.15;98576.05;1772635;80;21093;-68
2022/04/24 01:15:11;;;;;;;10.88;7.58;;;;;;;10.88;87.21;98569.52;1740329;80;21559;-71
2022/04/24 01:17:38;;;;;;;11.65;7.80;;;;;;;10.88;87.30;98566.76;1772930;80;20992;-71
2022/04/24 01:20:11;;;;;;;13.48;8.45;;;;;;;10.89;87.33;98567.78;1773331;80;21547;-67
2022/04/24 01:22:39;;;;;;;12.03;8.48;;;;;;;10.87;87.14;98572.83;1773367;80;20996;-68
2022/04/24 01:25:08;;;;;;;13.00;9.50;;;;;;;10.80;87.20;98567.09;1751583;81;21007;-67
2022/04/24 01:27:39;;;;;;;10.03;7.70;;;;;;;10.77;87.36;98573.30;1770385;80;21016;-72
2022/04/24 01:30:07;;;;;;;11.93;8.60;;;;;;;10.77;87.49;98567.22;1772999;80;21063;-68
2022/04/24 01:32:34;;;;;;;14.05;9.83;;;;;;;10.79;87.48;98572.38;1769648;80;21571;-73
2022/04/24 01:35:02;;;;;;;13.20;8.98;;;;;;;10.80;87.58;98580.30;1772311;80;21070;-65
2022/04/24 01:37:34;;;;;;;13.20;9.10;;;;;;;10.80;87.56;98570.66;1772292;80;21016;-65
2022/04/24 01:40:00;;;;;;;12.78;8.78;;;;;;;10.82;87.61;98567.55;1773521;80;21016;-68
2022/04/24 01:42:31;;;;;;;13.18;9.75;;;;;;;10.85;87.57;98574.34;1751437;81;21074;-70
2022/04/24 01:45:00;;;;;;;15.72;9.45;;;;;;;10.87;87.52;98574.21;1753465;81;20972;-65
2022/04/24 01:47:30;;;;;;;15.68;9.95;;;;;;;10.87;87.48;98573.40;1772525;80;21195;-70
2022/04/24 01:49:58;;;;;;;16.17;10.63;;;;;;;10.87;87.42;98575.59;1773190;80;21547;-69
2022/04/24 01:52:25;;;;;;;15.00;10.38;;;;;;;10.88;87.41;98570.89;1773731;80;21070;-68
2022/04/24 01:54:56;;;;;;;15.38;10.58;;;;;;;10.88;87.39;98578.59;1769992;80;21051;-67
2022/04/24 01:57:27;;;;;;;14.93;9.80;;;;;;;10.87;87.28;98575.59;1752482;81;21015;-71
2022/04/24 01:59:55;;;;;;;17.32;11.03;;;;;;;10.87;87.35;98575.59;1769655;80;21284;-68
2022/04/24 02:02:21;;;;;;;18.23;11.48;;;;;;;10.87;87.26;98576.16;1773251;80;21020;-66
2022/04/24 02:04:47;;;;;;;17.15;11.40;;;;;;;10.85;87.27;98583.98;1772744;80;21088;-65
2022/04/24 02:07:15;;;;;;;17.90;11.22;;;;;;;10.84;87.38;98581.80;1737355;80;21038;-69
2022/04/24 02:09:42;;;;;;;15.95;11.93;;;;;;;10.84;87.47;98579.05;1762690;80;20988;-72
2022/04/24 02:12:11;;;;;;;19.35;11.15;;;;;;;10.85;87.47;98590.28;1764463;80;21182;-66
2022/04/24 02:14:39;;;;;;;20.52;12.35;;;;;;;10.84;87.50;98588.69;1762335;80;20955;-64
2022/04/24 02:17:08;;;;;;;23.02;11.40;;;;;;;10.86;87.50;98591.09;1761577;80;21441;-71
2022/04/24 02:19:37;;;;;;;19.92;11.85;;;;;;;10.82;87.52;98587.66;1763859;80;21035;-66
2022/04/24 02:22:05;;;;;;;17.12;10.90;;;;;;;10.83;87.55;98594.77;1763313;80;21017;-66
2022/04/24 02:24:33;;;;;;;14.93;10.80;;;;;;;10.83;87.56;98598.11;1733569;80;21737;-66
2022/04/24 02:27:00;;;;;;;22.13;12.68;;;;;;;10.82;87.59;98593.16;1763359;80;21010;-70
2022/04/24 02:29:28;;;;;;;18.73;12.63;;;;;;;10.83;87.55;98595.36;1764400;80;20968;-69
2022/04/24 02:31:57;;;;;;;20.00;12.00;;;;;;;10.81;87.56;98599.84;1757720;80;21617;-69
2022/04/24 02:34:27;;;;;;;17.07;11.70;;;;;;;10.81;87.49;98604.53;1761982;80;21023;-68
2022/04/24 02:36:58;;;;;;;23.55;12.30;;;;;;;10.80;87.49;98603.72;1764448;80;21027;-72
2022/04/24 02:39:25;;;;;;;19.57;11.68;;;;;;;10.79;87.47;98598.55;1763514;80;21507;-67
2022/04/24 02:41:53;;;;;;;19.95;11.03;;;;;;;10.81;87.47;98596.27;1761181;80;21460;-70
2022/04/24 02:44:21;;;;;;;18.20;12.20;;;;;;;10.83;87.45;98603.63;1762906;80;21006;-69
2022/04/24 02:46:50;;;;;;;21.75;12.60;;;;;;;10.82;87.40;98604.19;1764200;80;21015;-69
2022/04/24 02:49:16;;;;;;;22.32;13.43;;;;;;;10.83;87.37;98614.05;1730356;80;21153;-66
2022/04/24 02:51:47;;;;;;;21.57;13.03;;;;;;;10.82;87.36;98619.91;1765500;80;21023;-69
2022/04/24 02:54:16;;;;;;;20.30;13.05;;;;;;;10.81;87.41;98621.06;1761574;80;21559;-64
2022/04/24 02:56:42;;;;;;;24.57;14.30;;;;;;;10.80;87.49;98634.59;1762661;80;21500;-66
2022/04/24 02:59:11;;;;;;;22.55;13.08;;;;;;;10.79;87.54;98630.24;1764385;80;21536;-67
2022/04/24 03:01:39;;;;;;;25.37;13.68;;;;;;;10.76;87.71;98631.75;1762171;80;21809;-64
2022/04/24 03:04:06;;;;;;;26.10;14.53;;;;;;;10.76;87.79;98641.39;1761616;80;21038;-65
2022/04/24 03:06:37;;;;;;;21.55;14.20;;;;;;;10.73;87.87;98640.67;1762807;79;21556;-68
2022/04/24 03:09:07;;;;;;;22.80;13.78;;;;;;;10.74;88.03;98649.75;1761279;79;21005;-71
2022/04/24 03:11:33;;;;;;;24.75;14.25;;;;;;;10.71;88.12;98642.40;1760698;81;21000;-71
2022/04/24 03:14:04;;;;;;;27.62;14.35;;;;;;;10.71;88.23;98645.16;1758479;81;21113;-69
2022/04/24 03:16:32;;;;;;;26.90;16.30;;;;;;;10.73;88.40;98644.02;1759658;81;21529;-70
2022/04/24 03:19:05;;;;;;;24.52;14.30;;;;;;;10.72;88.48;98655.61;1758844;81;20988;-70
2022/04/24 03:21:33;;;;;;;23.52;15.05;;;;;;;10.74;88.57;98656.64;1739179;81;21023;-66
2022/04/24 03:24:01;;;;;;;23.15;14.30;;;;;;;10.74;88.65;98662.97;1758845;81;21017;-63
2022/04/24 03:26:29;;;;;;;21.87;14.20;;;;;;;10.75;88.66;98666.53;1759598;81;21079;-69
2022/04/24 03:28:57;;;;;;;22.27;14.47;;;;;;;10.75;88.69;98668.70;1755939;81;21561;-72
2022/04/24 03:31:24;;;;;;;20.95;13.32;;;;;;;10.77;88.69;98680.19;1755983;79;21497;-66
2022/04/24 03:33:54;;;;;;;23.12;14.68;;;;;;;10.78;88.77;98684.54;1760118;81;20982;-66
2022/04/24 03:36:23;;;;;;;20.57;13.35;;;;;;;10.79;88.86;98683.98;1758823;81;21043;-70
2022/04/24 03:38:49;;;;;;;22.90;14.68;;;;;;;10.80;88.84;98685.01;1754316;81;21924;-66
2022/04/24 03:41:17;;;;;;;25.27;14.25;;;;;;;10.81;88.88;98688.58;1757761;81;20991;-65
2022/04/24 03:43:45;;;;;;;27.37;16.30;;;;;;;10.81;88.89;98686.64;1758216;81;20992;-66
2022/04/24 03:46:12;;;;;;;23.35;14.68;;;;;;;10.81;88.89;98689.39;1759844;81;21546;-65
2022/04/24 03:48:40;;;;;;;21.93;14.10;;;;;;;10.80;88.92;98689.70;1758457;81;21003;-71
2022/04/24 03:51:08;;;;;;;20.52;13.72;;;;;;;10.79;88.93;98688.92;1757680;81;20988;-62
2022/04/24 03:53:36;;;;;;;26.80;14.28;;;;;;;10.79;88.96;98695.81;1755591;81;21477;-72
2022/04/24 03:56:06;;;;;;;21.95;13.95;;;;;;;10.76;88.91;98693.75;1759270;81;21523;-72
2022/04/24 03:58:33;;;;;;;20.30;12.33;;;;;;;10.75;88.93;98699.59;1757539;81;20983;-73
2022/04/24 04:01:00;;;;;;;18.67;11.30;;;;;;;10.69;88.63;98700.38;1758816;81;21489;-72
2022/04/24 04:03:28;;;;;;;22.07;10.95;;;;;;;10.63;88.60;98701.16;1759331;81;22046;-73
2022/04/24 04:05:56;;;;;;;18.92;10.43;;;;;;;10.55;88.26;98700.68;1755620;81;21037;-61
2022/04/24 04:08:23;;;;;;;14.53;9.75;;;;;;;10.48;88.21;98706.74;1770979;80;21020;-69
2022/04/24 04:10:54;;;;;;;11.30;7.75;;;;;;;10.46;88.22;98712.56;1771626;80;21021;-71
2022/04/24 04:13:23;;;;;;;13.90;9.30;;;;;;;10.39;87.65;98715.64;1772087;80;21003;-66
2022/04/24 04:15:54;;;;;;;13.40;9.35;;;;;;;10.32;87.57;98718.36;1771686;80;21019;-68
2022/04/24 04:18:20;;;;;;;9.83;7.95;;;;;;;10.29;87.71;98719.59;1772448;80;20954;-73
2022/04/24 04:20:51;;;;;;;9.95;6.92;;;;;;;10.25;87.43;98727.75;1772619;80;21048;-70
2022/04/24 04:23:20;;;;;;;9.78;6.78;;;;;;;10.23;87.19;98728.06;1771929;80;21481;-72
2022/04/24 04:25:48;;;;;;;9.40;6.75;;;;;;;10.21;86.82;98735.06;1772067;80;21035;-64
2022/04/24 04:28:17;;;;;;;8.30;6.53;;;;;;;10.19;86.54;98734.02;1768772;80;21126;-74
2022/04/24 04:30:45;;;;;;;10.80;7.08;;;;;;;10.17;86.16;98734.92;1772026;80;21083;-65
2022/04/24 04:33:11;;;;;;;9.63;6.50;;;;;;;10.12;85.79;98735.72;1771694;80;21031;-63
2022/04/24 04:35:39;;;;;;;8.68;6.58;;;;;;;10.09;86.05;98735.80;1772508;80;20886;-69
2022/04/24 04:38:08;;;;;;;7.58;6.12;;;;;;;10.10;85.95;98740.97;1772790;80;21032;-65
2022/04/24 04:40:36;;;;;;;8.48;6.72;;;;;;;10.05;85.27;98739.80;1768859;80;20949;-66
2022/04/24 04:43:03;;;;;;;7.78;5.67;;;;;;;9.96;85.10;98745.36;1771483;80;20989;-71
2022/04/24 04:45:30;;;;;;;7.17;5.83;;;;;;;9.94;85.37;98749.04;1771699;79;21079;-67
2022/04/24 04:47:58;;;;;;;7.85;6.37;;;;;;;9.98;85.31;98759.59;1772589;80;21035;-71
2022/04/24 04:50:25;;;;;;;6.60;5.12;;;;;;;9.98;84.89;98761.53;1772092;80;21044;-67
2022/04/24 04:52:52;;;;;;;6.08;5.40;;;;;;;10.00;84.80;98763.39;1772446;80;21185;-66
2022/04/24 04:55:20;;;;;;;11.95;6.00;;;;;;;10.02;84.68;98761.67;1773105;80;21493;-68
2022/04/24 04:57:48;;;;;;;10.80;6.05;;;;;;;10.07;84.48;98766.98;1771826;80;21015;-64
2022/04/24 05:00:17;;;;;;;7.10;5.15;;;;;;;10.13;84.49;98762.91;1768420;80;21635;-61
2022/04/24 05:02:47;;;;;;;7.80;5.60;;;;;;;10.17;84.30;98763.02;1772308;80;21484;-65
2022/04/24 05:05:15;;;;;;;7.25;5.90;;;;;;;10.18;83.85;98768.22;1768494;80;21482;-63
2022/04/24 05:07:44;;;;;;;10.13;5.90;;;;;;;10.22;84.19;98769.14;1772346;80;20988;-71
2022/04/24 05:10:12;;;;;;;11.80;6.50;;;;;;;10.33;84.22;98765.98;1743333;80;21047;-65
2022/04/24 05:12:40;;;;;;;9.00;6.03;;;;;;;10.41;84.03;98769.79;1774687;80;21004;-76
2022/04/24 05:15:14;;;;;;;12.82;6.83;;;;;;;10.46;83.74;98775.09;1774995;80;21464;-66
2022/04/24 05:17:43;;;;;;;9.33;6.15;;;;;;;10.52;83.73;98771.04;1772003;80;21040;-61
2022/04/24 05:20:12;;;;;;;6.67;5.60;;;;;;;10.60;83.52;98777.59;1775249;80;20981;-74
2022/04/24 05:22:40;;;;;;;7.65;6.17;;;;;;;10.66;83.18;98777.61;1774237;80;21087;-62
2022/04/24 05:25:09;;;;;;;6.05;5.10;;;;;;;10.73;83.03;98786.70;1774290;80;21513;-73
2022/04/24 05:27:37;;;;;;;8.38;7.28;;;;;;;10.79;82.30;98785.93;1771104;80;21007;-70
2022/04/24 05:30:07;;;;;;;10.23;7.15;;;;;;;10.78;82.19;98782.95;1774774;80;21563;-63
2022/04/24 05:32:49;;;;;;;7.85;6.90;;;;;;;10.82;82.10;98781.93;1774000;80;21118;-69
2022/04/24 05:35:18;;;;;;;6.70;5.80;;;;;;;10.87;81.78;98782.28;1771473;80;21071;-64
2022/04/24 05:37:45;;;;;;;8.20;6.40;;;;;;;10.89;81.58;98781.37;1771075;79;21528;-67
2022/04/24 05:40:15;;;;;;;9.45;7.33;;;;;;;10.93;81.02;98784.25;1778646;80;21472;-66
2022/04/24 05:42:52;;;;;;;10.32;7.83;;;;;;;10.91;81.17;98783.78;1775779;80;21670;-73
2022/04/24 05:45:27;;;;;;;9.33;7.03;;;;;;;10.99;81.21;98787.58;1779482;80;20985;-61
2022/04/24 05:47:57;;;;;;;8.33;6.80;;;;;;;11.04;80.04;98794.26;1779099;79;21011;-64
2022/04/24 05:50:25;;;;;;;9.43;7.42;;;;;;;11.06;79.47;98790.03;1779278;79;21001;-65
2022/04/24 05:52:57;;;;;;;10.40;8.58;;;;;;;11.16;79.58;98792.91;1778401;79;21102;-67
2022/04/24 05:55:25;;;;;;;10.40;9.23;;;;;;;11.24;78.76;98801.44;1772988;80;21486;-71
2022/04/24 05:57:53;;;;;;;10.25;8.55;;;;;;;11.25;78.38;98801.66;1772391;79;21070;-73
2022/04/24 06:00:21;;;;;;;15.88;8.43;;;;;;;11.28;78.22;98801.78;1776076;80;21008;-72
2022/04/24 06:02:51;;;;;;;12.58;8.70;;;;;;;11.36;78.04;98802.03;1773185;80;21461;-68
2022/04/24 06:05:19;;;;;;;12.13;9.38;;;;;;;11.43;77.40;98807.77;1780457;79;21033;-66
2022/04/24 06:07:51;;;;;;;11.78;9.55;;;;;;;11.48;76.86;98805.37;1792240;79;20989;-71
2022/04/24 06:10:19;;;;;;;12.28;9.28;;;;;;;11.53;76.39;98807.91;1751903;80;21072;-62
2022/04/24 06:12:51;;;;;;;14.65;9.25;;;;;;;11.50;74.61;98808.60;1787321;79;21525;-67
2022/04/24 06:15:21;;;;;;;15.98;10.50;;;;;;;11.46;74.89;98804.91;1778456;80;20976;-72
2022/04/24 06:17:52;;;;;;;10.78;9.35;;;;;;;11.51;74.98;98812.96;1735129;80;21110;-76
2022/04/24 06:20:21;;;;;;;12.00;9.33;;;;;;;11.59;74.18;98808.47;1775827;79;21745;-63
2022/04/24 06:22:52;;;;;;;12.07;10.32;;;;;;;11.59;72.94;98803.77;1739912;82;20979;-72
2022/04/24 06:25:31;;;;;;;14.18;10.98;;;;;;;11.65;72.64;98802.38;1780478;79;21002;-68
2022/04/24 06:27:58;;;;;;;12.73;9.70;;;;;;;11.69;72.65;98807.45;1738293;80;21013;-71
2022/04/24 06:30:28;;;;;;;15.13;10.88;;;;;;;11.73;71.85;98810.89;1799168;79;21528;-71
2022/04/24 06:32:57;;;;;;;13.68;11.38;;;;;;;11.74;71.42;98809.16;1780694;79;21060;-71
2022/04/24 06:35:24;;;;;;;15.28;10.95;;;;;;;11.79;71.00;98815.02;1775931;80;21019;-69
2022/04/24 06:37:55;;;;;;;11.25;8.98;;;;;;;11.81;70.41;98812.73;1789912;79;21030;-69
2022/04/24 06:40:24;;;;;;;12.93;10.00;;;;;;;11.83;69.80;98815.95;1776782;78;21016;-65
2022/04/24 06:43:04;;;;;;;12.82;9.78;;;;;;;11.81;69.84;98822.39;1778941;80;21006;-73
2022/04/24 06:45:40;;;;;;;17.40;10.70;;;;;;;11.86;69.24;98819.96;1773245;79;21227;-71
2022/04/24 06:48:15;;;;;;;13.08;9.28;;;;;;;11.96;69.02;98811.81;1771429;80;21040;-75
2022/04/24 06:50:47;;;;;;;10.63;8.58;;;;;;;12.05;68.72;98819.37;1778927;79;21087;-71
2022/04/24 06:53:20;;;;;;;11.33;8.85;;;;;;;12.17;67.75;98829.06;1779361;79;20992;-68
2022/04/24 06:55:50;;;;;;;12.65;9.83;;;;;;;12.31;67.13;98826.50;1740733;81;22359;-65
2022/04/24 06:58:19;;;;;;;12.78;10.32;;;;;;;12.43;67.07;98826.23;1771301;79;21544;-70
2022/04/24 07:00:48;;;;;;;13.70;11.08;;;;;;;12.57;65.99;98832.77;1780879;79;21010;-72
2022/04/24 07:03:26;;;;;;;11.95;10.28;;;;;;;12.62;64.59;98822.25;1778972;79;21049;-65
2022/04/24 07:06:01;;;;;;;13.68;10.70;;;;;;;12.63;63.59;98830.78;1785027;79;21538;-66
2022/04/24 07:08:34;;;;;;;13.25;10.80;;;;;;;12.66;63.02;98823.17;1778330;79;21493;-66
2022/04/24 07:11:04;;;;;;;21.40;11.35;;;;;;;12.73;63.82;98818.42;1773174;79;21084;-72
2022/04/24 07:13:33;;;;;;;14.35;11.05;;;;;;;12.87;63.16;98824.94;1753394;80;21000;-70
2022/04/24 07:16:03;;;;;;;11.85;9.10;;;;;;;12.99;63.23;98824.64;1772427;79;21061;-68
2022/04/24 07:18:31;;;;;;;11.78;9.40;;;;;;;13.08;60.98;98831.40;1776002;79;21553;-68
2022/04/24 07:21:00;;;;;;;12.70;9.23;;;;;;;13.14;59.74;98825.83;1769596;79;20979;-69
2022/04/24 07:23:35;;;;;;;10.65;9.05;;;;;;;13.20;59.32;98825.81;1760438;80;21871;-66
2022/04/24 07:26:02;;;;;;;15.48;9.25;;;;;;;13.21;57.79;98827.41;1735595;81;21057;-72
2022/04/24 07:28:32;;;;;;;9.03;7.53;;;;;;;13.25;57.54;98831.65;1760435;80;21018;-63
2022/04/24 07:31:08;;;;;;;10.72;7.72;;;;;;;13.36;55.07;98831.34;1762009;80;20968;-70
2022/04/24 07:33:43;;;;;;;13.75;8.63;;;;;;;13.41;54.92;98833.03;1772093;79;20993;-66
2022/04/24 07:36:11;;;;;;;11.93;8.75;;;;;;;13.45;54.66;98839.48;1769535;80;21030;-69
2022/04/24 07:38:42;;;;;;;7.87;6.65;;;;;;;13.49;55.51;98838.97;1728641;81;21048;-63
2022/04/24 07:41:10;;;;;;;13.50;6.67;;;;;;;13.59;54.14;98841.84;1752035;80;20987;-62
2022/04/24 07:43:38;;;;;;;11.90;7.65;;;;;;;13.65;53.94;98844.34;1730993;81;21042;-69
2022/04/24 07:46:06;;;;;;;7.05;5.95;;;;;;;13.62;53.58;98843.89;1757932;80;21038;-64
2022/04/24 07:48:35;;;;;;;6.12;5.03;;;;;;;13.58;53.22;98847.13;1771425;80;21027;-63
2022/04/24 07:51:03;;;;;;;8.50;5.30;;;;;;;13.51;52.31;98851.09;1772594;79;20998;-73
2022/04/24 07:53:31;;;;;;;5.83;5.08;;;;;;;13.45;52.91;98849.73;1768592;80;21037;-64
2022/04/24 07:55:59;;;;;;;5.65;4.53;;;;;;;13.46;52.75;98848.59;1734310;80;21059;-72
2022/04/24 07:58:28;;;;;;;7.55;5.08;;;;;;;13.46;51.41;98844.44;1774603;79;21046;-68
2022/04/24 08:01:02;;;;;;;4.42;4.03;;;;;;;13.48;51.65;98848.44;1773409;79;20988;-66
2022/04/24 08:03:32;;;;;;;5.97;4.62;;;;;;;13.59;51.67;98845.98;1774078;80;20980;-66
2022/04/24 08:06:00;;;;;;;5.65;5.05;;;;;;;13.67;49.46;98837.27;1775021;79;21039;-70
2022/04/24 08:08:27;;;;;;;5.00;4.28;;;;;;;13.74;51.14;98833.88;1775437;80;21025;-73
2022/04/24 08:10:56;;;;;;;5.12;4.03;;;;;;;13.88;51.60;98838.95;1774265;80;22237;-63
2022/04/24 08:13:27;;;;;;;5.00;4.47;;;;;;;14.04;48.95;98841.69;1774540;80;20997;-67
2022/04/24 08:15:54;;;;;;;4.95;4.33;;;;;;;14.12;47.68;98837.91;1774096;80;20999;-64
2022/04/24 08:18:21;;;;;;;4.75;3.98;;;;;;;14.18;48.71;98844.56;1779524;80;21583;-64
2022/04/24 08:20:49;;;;;;;4.70;3.98;;;;;;;14.25;47.83;98850.27;1776392;79;21048;-67
2022/04/24 08:23:20;;;;;;;4.37;3.77;;;;;;;14.30;47.99;98848.61;1772931;79;21444;-71
2022/04/24 08:25:47;;;;;;;5.37;4.08;;;;;;;14.33;47.95;98836.80;1781508;79;21174;-64
2022/04/24 08:28:15;;;;;;;5.03;4.00;;;;;;;14.40;48.85;98845.84;1777586;80;21556;-71
2022/04/24 08:30:45;;;;;;;4.25;3.67;;;;;;;14.53;48.25;98849.87;1778709;80;21785;-70
2022/04/24 08:33:15;;;;;;;7.40;3.95;;;;;;;14.64;48.12;98855.66;1776358;79;21016;-64
2022/04/24 08:35:45;;;;;;;4.65;4.05;;;;;;;14.70;47.18;98851.42;1774757;80;21084;-64
2022/04/24 08:38:13;;;;;;;5.65;4.20;;;;;;;14.72;45.86;98849.09;1780897;79;21012;-74
2022/04/24 08:40:47;;;;;;;5.42;4.78;;;;;;;14.67;45.42;98846.61;1777474;80;21085;-69
2022/04/24 08:43:18;;;;;;;4.35;3.25;;;;;;;14.56;46.61;98847.77;1778013;80;21008;-66
2022/04/24 08:45:51;;;;;;;5.85;3.70;;;;;;;14.62;47.65;98846.30;1755740;80;21031;-70
2022/04/24 08:48:20;;;;;;;6.28;4.75;;;;;;;14.77;47.76;98851.58;1777421;79;21044;-68
2022/04/24 08:50:49;;;;;;;6.40;4.40;;;;;;;14.93;47.15;98853.47;1774918;79;21846;-68
2022/04/24 08:53:17;;;;;;;4.30;3.90;;;;;;;14.81;46.60;98848.88;1775378;79;21020;-65
2022/04/24 08:55:44;;;;;;;6.50;3.80;;;;;;;14.76;46.35;98851.92;1778150;80;21035;-66
2022/04/24 08:58:12;;;;;;;4.58;3.80;;;;;;;14.61;46.47;98840.55;1779031;80;21070;-73
2022/04/24 09:00:43;;;;;;;5.03;4.15;;;;;;;14.66;46.69;98845.80;1777578;79;21024;-66
2022/04/24 09:03:11;;;;;;;4.33;3.62;;;;;;;14.81;47.43;98848.31;1777802;80;22133;-65
2022/04/24 09:05:43;;;;;;;4.85;3.60;;;;;;;14.97;46.26;98844.66;1773739;80;21083;-66
2022/04/24 09:08:13;;;;;;;5.12;3.67;;;;;;;15.08;46.17;98841.49;1781020;80;21086;-68
2022/04/24 09:10:55;;;;;;;4.25;3.25;;;;;;;15.13;43.36;98847.92;1776697;79;21473;-68
2022/04/24 09:16:35;;;;;;;3.12;2.83;;;;;;;15.03;43.92;98852.10;1777608;79;21016;-73
2022/04/24 09:19:06;;;;;;;3.72;3.10;;;;;;;15.10;45.76;98853.61;1778699;79;21045;-65
2022/04/24 09:21:37;;;;;;;4.35;3.67;;;;;;;15.24;46.27;98862.79;1777170;79;21117;-65
2022/04/24 09:24:08;;;;;;;4.17;3.35;;;;;;;15.36;44.63;98859.63;1779154;80;21024;-67
2022/04/24 09:26:36;;;;;;;4.22;3.33;;;;;;;15.37;44.95;98852.92;1779225;79;21011;-69
2022/04/24 09:29:12;;;;;;;4.40;3.50;;;;;;;15.44;45.42;98855.22;1779980;80;21027;-64
2022/04/24 09:31:46;;;;;;;3.70;2.75;;;;;;;15.49;44.62;98852.72;1780864;80;21053;-65
2022/04/24 09:34:17;;;;;;;;;;;;;;;15.52;44.97;98857.55;1782484;79;21067;-70
2022/04/24 09:36:47;;;;;;;4.30;3.83;;;;;;;15.63;43.46;98861.07;1777940;80;20176;-74
2022/04/24 09:39:15;;;;;;;5.12;4.28;;;;;;;15.65;44.46;98863.71;1777224;80;21056;-63
2022/04/24 09:41:49;;;;;;;4.83;4.17;;;;;;;15.66;45.65;98861.75;1779108;79;21133;-67
2022/04/24 09:44:19;;;;;;;4.45;3.83;;;;;;;15.70;45.05;98869.53;1760258;80;20998;-70
2022/04/24 09:46:48;;;;;;;4.55;3.40;;;;;;;15.76;44.75;98865.27;1780280;79;21094;-68
2022/04/24 09:49:23;;;;;;;3.93;3.60;;;;;;;15.80;44.88;98862.55;1764099;80;20998;-67
2022/04/24 09:51:54;;;;;;;;;;;;;;;15.89;45.18;98869.23;1763696;80;21068;-63
2022/04/24 09:54:20;;;;;;;4.85;4.28;;;;;;;15.98;44.32;98864.82;1753278;79;21830;-62
2022/04/24 09:56:50;;;;;;;5.12;4.28;;;;;;;16.05;44.15;98869.92;1756594;81;21042;-69
2022/04/24 09:59:18;;;;;;;4.60;3.45;;;;;;;16.08;45.14;98878.69;1779335;80;21549;-64
2022/04/24 10:01:48;;;;;;;4.72;3.45;;;;;;;16.15;43.97;98865.73;1780773;79;21024;-64
2022/04/24 10:04:18;;;;;;;3.90;3.25;;;;;;;16.18;44.07;98866.94;1779309;79;21008;-69
2022/04/24 10:06:45;;;;;;;4.40;3.17;;;;;;;16.20;45.42;98868.77;1777800;79;21161;-70
2022/04/24 10:09:13;;;;;;;3.75;3.02;;;;;;;16.37;44.08;98872.17;1726715;80;21036;-66
2022/04/24 10:11:46;;;;;;;4.30;3.52;;;;;;;16.49;44.94;98876.12;1772879;79;21077;-64
2022/04/24 10:14:17;;;;;;;3.70;3.37;;;;;;;16.61;43.30;98879.84;1753441;80;21005;-66
2022/04/24 10:17:01;;;;;;;4.85;3.37;;;;;;;16.61;43.21;98877.06;1772166;79;21673;-66
2022/04/24 10:19:55;;;;;;;5.08;3.65;;;;;;;16.54;43.29;98878.58;1773511;79;22458;-66
2022/04/24 10:22:38;;;;;;;5.08;3.33;;;;;;;16.52;43.93;98878.73;1748616;80;21091;-68
2022/04/24 10:25:07;;;;;;;3.77;3.37;;;;;;;16.60;44.03;98877.64;1773614;79;21130;-63
2022/04/24 10:27:42;;;;;;;4.35;3.42;;;;;;;16.68;44.02;98888.28;1777740;80;21020;-72
2022/04/24 10:30:25;;;;;;;3.92;3.50;;;;;;;16.77;43.25;98883.23;1755874;80;21017;-63
2022/04/24 10:33:21;;;;;;;3.60;3.10;;;;;;;16.87;42.75;98874.80;1758081;80;21140;-64
2022/04/24 10:35:54;;;;;;;5.35;4.15;;;;;;;17.00;43.92;98873.97;1757343;80;21046;-67
2022/04/24 10:38:23;;;;;;;4.53;3.40;;;;;;;17.09;42.71;98873.71;1763719;79;21122;-66
2022/04/24 10:41:03;;;;;;;4.28;3.80;;;;;;;17.13;43.74;98880.69;1777269;79;21372;-67
2022/04/24 10:43:40;;;;;;;4.67;3.70;;;;;;;17.24;42.36;98882.20;1789858;79;21032;-65
2022/04/24 10:46:33;;;;;;;4.37;3.58;;;;;;;17.22;42.29;98881.78;1774285;79;21115;-64
2022/04/24 10:49:14;;;;;;;5.70;3.20;;;;;;;17.21;43.65;98895.50;1741371;80;21497;-64
2022/04/24 10:51:44;;;;;;;4.03;3.62;;;;;;;17.30;43.39;98885.45;1756906;80;21034;-74
2022/04/24 10:54:14;;;;;;;3.98;3.05;;;;;;;17.35;42.71;98873.98;1756062;80;21024;-68
2022/04/24 10:56:51;;;;;;;4.15;3.40;;;;;;;17.40;41.71;98882.77;1775130;79;21054;-71
2022/04/24 10:59:22;;;;;;;4.60;3.35;;;;;;;17.43;41.12;98880.41;1731956;80;21487;-72
2022/04/24 11:01:52;;;;;;;12.88;10.90;;;;;;;17.41;42.07;98878.01;1752427;80;20970;-63
2022/04/24 11:04:40;;;;;;;5.83;4.47;;;;;;;17.47;43.30;98883.42;1750782;80;21069;-72
2022/04/24 11:07:08;;;;;;;3.47;3.17;;;;;;;17.48;42.17;98878.67;1763970;80;21077;-69
2022/04/24 11:09:43;;;;;;;4.97;3.45;;;;;;;17.44;43.02;98877.82;1713847;81;21115;-69
2022/04/24 11:12:11;;;;;;;3.15;2.85;;;;;;;17.45;43.63;98880.22;1768073;79;21072;-70
2022/04/24 11:14:45;;;;;;;4.42;3.12;;;;;;;17.51;41.94;98878.70;1789122;80;21053;-70
2022/04/24 11:17:15;;;;;;;4.12;3.67;;;;;;;17.43;41.61;98877.04;1734793;81;20973;-69
2022/04/24 11:19:48;;;;;;;4.37;3.47;;;;;;;17.33;43.27;98876.34;1733059;82;21079;-70
2022/04/24 11:22:19;;;;;;;4.05;3.33;;;;;;;17.25;43.08;98880.43;1733877;80;21052;-71
2022/04/24 11:24:54;;;;;;;8.10;3.65;;;;;;;17.19;42.99;98870.02;1762161;80;21012;-70
2022/04/24 11:27:27;;;;;;;4.45;3.35;;;;;;;17.24;43.83;98876.05;1758918;80;21061;-68
2022/04/24 11:29:59;;;;;;;4.53;3.42;;;;;;;17.37;44.51;98880.75;1768090;79;21017;-68
2022/04/24 11:32:30;;;;;;;4.97;3.77;;;;;;;17.55;44.26;98884.90;1730434;82;21023;-70
2022/04/24 11:35:00;;;;;;;5.58;4.42;;;;;;;17.67;43.97;98883.81;1793355;79;21068;-72
2022/04/24 11:37:38;;;;;;;4.22;3.30;;;;;;;17.74;43.17;98880.48;1747638;80;21593;-70
2022/04/24 11:40:09;;;;;;;;;;;;;;;17.76;41.66;98884.28;1734027;81;21003;-69
2022/04/24 11:42:43;;;;;;;3.55;3.12;;;;;;;17.72;41.95;98881.48;1754367;80;20180;-69